sensor_id;sensor_type;location;lat;lon;timestamp;temperature;humidity
4376;DHT22;2202;50.866;12.750;2024-03-23T00:54:08;9.20;86.80
4376;DHT22;2202;50.866;12.750;2024-03-23T00:56:33;9.20;87.00
4376;DHT22;2202;50.866;12.750;2024-03-23T00:59:00;9.30;86.80
4376;DHT22;2202;50.866;12.750;2024-03-23T01:01:26;9.30;86.40
4376;DHT22;2202;50.866;12.750;2024-03-23T01:03:53;9.30;86.60
4376;DHT22;2202;50.866;12.750;2024-03-23T01:06:18;9.30;87.00
4376;DHT22;2202;50.866;12.750;2024-03-23T01:08:45;9.30;86.80
4376;DHT22;2202;50.866;12.750;2024-03-23T01:11:12;9.30;86.20
4376;DHT22;2202;50.866;12.750;2024-03-23T01:13:39;9.30;86.20
4376;DHT22;2202;50.866;12.750;2024-03-23T01:16:05;9.30;86.00
4376;DHT22;2202;50.866;12.750;2024-03-23T01:18:32;9.30;85.80
4376;DHT22;2202;50.866;12.750;2024-03-23T01:20:58;9.20;86.00
4376;DHT22;2202;50.866;12.750;2024-03-23T01:23:25;9.20;86.00
4376;DHT22;2202;50.866;12.750;2024-03-23T01:25:53;9.20;85.80
4376;DHT22;2202;50.866;12.750;2024-03-23T01:28:21;9.10;85.80
4376;DHT22;2202;50.866;12.750;2024-03-23T01:30:49;9.10;86.00
4376;DHT22;2202;50.866;12.750;2024-03-23T01:33:15;9.00;86.20
4376;DHT22;2202;50.866;12.750;2024-03-23T01:35:42;9.00;86.40
4376;DHT22;2202;50.866;12.750;2024-03-23T01:38:08;8.90;86.80
4376;DHT22;2202;50.866;12.750;2024-03-23T01:40:34;8.80;87.00
4376;DHT22;2202;50.866;12.750;2024-03-23T01:43:04;8.80;87.00
4376;DHT22;2202;50.866;12.750;2024-03-23T01:45:32;8.70;87.20
4376;DHT22;2202;50.866;12.750;2024-03-23T01:47:58;8.60;87.40
4376;DHT22;2202;50.866;12.750;2024-03-23T01:50:25;8.60;87.60
4376;DHT22;2202;50.866;12.750;2024-03-23T01:52:52;8.50;87.60
4376;DHT22;2202;50.866;12.750;2024-03-23T01:55:19;8.40;87.60
4376;DHT22;2202;50.866;12.750;2024-03-23T01:57:45;8.30;88.00
4376;DHT22;2202;50.866;12.750;2024-03-23T02:00:13;8.20;88.60
4376;DHT22;2202;50.866;12.750;2024-03-23T02:02:43;8.10;89.40
4376;DHT22;2202;50.866;12.750;2024-03-23T02:05:11;8.00;89.80
4376;DHT22;2202;50.866;12.750;2024-03-23T02:07:37;7.90;90.10
4376;DHT22;2202;50.866;12.750;2024-03-23T02:10:06;7.90;90.30
4376;DHT22;2202;50.866;12.750;2024-03-23T02:12:32;7.80;90.50
4376;DHT22;2202;50.866;12.750;2024-03-23T02:14:58;7.80;91.00
4376;DHT22;2202;50.866;12.750;2024-03-23T02:17:24;7.80;92.10
4376;DHT22;2202;50.866;12.750;2024-03-23T02:19:52;7.80;93.70
4376;DHT22;2202;50.866;12.750;2024-03-23T02:22:18;7.80;94.90
4376;DHT22;2202;50.866;12.750;2024-03-23T02:24:46;7.80;95.90
4376;DHT22;2202;50.866;12.750;2024-03-23T02:27:12;7.80;96.30
4376;DHT22;2202;50.866;12.750;2024-03-23T02:29:39;7.90;96.70
4376;DHT22;2202;50.866;12.750;2024-03-23T02:32:05;7.90;96.80
4376;DHT22;2202;50.866;12.750;2024-03-23T02:34:34;7.90;97.00
4376;DHT22;2202;50.866;12.750;2024-03-23T02:37:00;7.90;97.30
4376;DHT22;2202;50.866;12.750;2024-03-23T02:39:27;7.90;97.60
4376;DHT22;2202;50.866;12.750;2024-03-23T02:41:54;7.90;97.70
4376;DHT22;2202;50.866;12.750;2024-03-23T02:44:20;8.00;97.90
4376;DHT22;2202;50.866;12.750;2024-03-23T02:46:47;8.00;97.90
4376;DHT22;2202;50.866;12.750;2024-03-23T02:49:14;8.00;97.90
4376;DHT22;2202;50.866;12.750;2024-03-23T02:51:40;8.00;98.40
4376;DHT22;2202;50.866;12.750;2024-03-23T02:54:07;8.00;98.30
4376;DHT22;2202;50.866;12.750;2024-03-23T02:56:32;8.00;98.40
4376;DHT22;2202;50.866;12.750;2024-03-23T02:59:01;8.10;98.50
4376;DHT22;2202;50.866;12.750;2024-03-23T03:01:26;8.00;98.60
4376;DHT22;2202;50.866;12.750;2024-03-23T03:03:53;8.00;98.80
4376;DHT22;2202;50.866;12.750;2024-03-23T03:06:25;7.90;98.90
4376;DHT22;2202;50.866;12.750;2024-03-23T03:08:52;7.90;98.90
4376;DHT22;2202;50.866;12.750;2024-03-23T03:11:18;8.00;98.90
4376;DHT22;2202;50.866;12.750;2024-03-23T03:13:44;8.00;98.90
4376;DHT22;2202;50.866;12.750;2024-03-23T03:16:12;8.00;98.90
4376;DHT22;2202;50.866;12.750;2024-03-23T03:18:39;8.00;99.00
4376;DHT22;2202;50.866;12.750;2024-03-23T03:21:06;8.10;99.00
4376;DHT22;2202;50.866;12.750;2024-03-23T03:23:36;8.10;99.00
4376;DHT22;2202;50.866;12.750;2024-03-23T03:26:02;8.00;99.00
4376;DHT22;2202;50.866;12.750;2024-03-23T03:28:29;8.00;99.20
4376;DHT22;2202;50.866;12.750;2024-03-23T03:30:56;8.00;99.10
4376;DHT22;2202;50.866;12.750;2024-03-23T03:33:24;8.00;99.10
4376;DHT22;2202;50.866;12.750;2024-03-23T03:35:50;8.00;98.90
4376;DHT22;2202;50.866;12.750;2024-03-23T03:38:18;8.00;99.00
4376;DHT22;2202;50.866;12.750;2024-03-23T03:40:44;8.00;99.00
4376;DHT22;2202;50.866;12.750;2024-03-23T03:43:10;8.00;98.90
4376;DHT22;2202;50.866;12.750;2024-03-23T03:45:36;7.90;99.00
4376;DHT22;2202;50.866;12.750;2024-03-23T03:48:03;7.90;99.10
4376;DHT22;2202;50.866;12.750;2024-03-23T03:50:31;7.90;99.20
4376;DHT22;2202;50.866;12.750;2024-03-23T03:52:58;8.00;99.00
4376;DHT22;2202;50.866;12.750;2024-03-23T03:55:23;7.90;98.80
4376;DHT22;2202;50.866;12.750;2024-03-23T03:57:50;8.00;98.90
4376;DHT22;2202;50.866;12.750;2024-03-23T04:00:16;8.00;98.80
4376;DHT22;2202;50.866;12.750;2024-03-23T04:02:43;8.00;98.60
4376;DHT22;2202;50.866;12.750;2024-03-23T04:05:09;8.00;98.60
4376;DHT22;2202;50.866;12.750;2024-03-23T04:07:37;7.90;98.50
4376;DHT22;2202;50.866;12.750;2024-03-23T04:10:03;7.70;98.70
4376;DHT22;2202;50.866;12.750;2024-03-23T04:12:33;7.60;99.20
4376;DHT22;2202;50.866;12.750;2024-03-23T04:14:59;7.40;99.70
4376;DHT22;2202;50.866;12.750;2024-03-23T04:17:27;7.50;99.90
4376;DHT22;2202;50.866;12.750;2024-03-23T04:19:57;7.60;99.70
4376;DHT22;2202;50.866;12.750;2024-03-23T04:22:24;7.70;99.50
4376;DHT22;2202;50.866;12.750;2024-03-23T04:24:52;7.70;99.40
4376;DHT22;2202;50.866;12.750;2024-03-23T04:27:19;7.70;99.20
4376;DHT22;2202;50.866;12.750;2024-03-23T04:29:47;7.70;99.10
4376;DHT22;2202;50.866;12.750;2024-03-23T04:32:14;7.70;99.10
4376;DHT22;2202;50.866;12.750;2024-03-23T04:34:41;7.60;99.10
4376;DHT22;2202;50.866;12.750;2024-03-23T04:37:08;7.60;99.10
4376;DHT22;2202;50.866;12.750;2024-03-23T04:39:36;7.50;99.30
4376;DHT22;2202;50.866;12.750;2024-03-23T04:42:05;7.40;99.30
4376;DHT22;2202;50.866;12.750;2024-03-23T04:44:32;7.40;99.40
4376;DHT22;2202;50.866;12.750;2024-03-23T04:46:59;7.30;99.50
4376;DHT22;2202;50.866;12.750;2024-03-23T04:49:26;7.30;99.40
4376;DHT22;2202;50.866;12.750;2024-03-23T04:51:53;7.20;99.40
4376;DHT22;2202;50.866;12.750;2024-03-23T04:54:20;7.20;99.40
4376;DHT22;2202;50.866;12.750;2024-03-23T04:56:46;7.20;99.30
4376;DHT22;2202;50.866;12.750;2024-03-23T04:59:14;7.10;99.40
4376;DHT22;2202;50.866;12.750;2024-03-23T05:01:40;7.10;99.50
4376;DHT22;2202;50.866;12.750;2024-03-23T05:04:08;7.10;99.40
4376;DHT22;2202;50.866;12.750;2024-03-23T05:06:34;7.20;99.30
4376;DHT22;2202;50.866;12.750;2024-03-23T05:09:01;7.20;99.20
4376;DHT22;2202;50.866;12.750;2024-03-23T05:11:28;7.30;99.10
4376;DHT22;2202;50.866;12.750;2024-03-23T05:13:55;7.30;99.00
4376;DHT22;2202;50.866;12.750;2024-03-23T05:16:23;7.30;98.80
4376;DHT22;2202;50.866;12.750;2024-03-23T05:18:50;7.30;98.90
4376;DHT22;2202;50.866;12.750;2024-03-23T05:21:15;7.40;98.70
4376;DHT22;2202;50.866;12.750;2024-03-23T05:23:42;7.40;98.60
4376;DHT22;2202;50.866;12.750;2024-03-23T05:26:09;7.40;98.60
4376;DHT22;2202;50.866;12.750;2024-03-23T05:28:36;7.40;98.60
4376;DHT22;2202;50.866;12.750;2024-03-23T05:31:02;7.40;98.60
4376;DHT22;2202;50.866;12.750;2024-03-23T05:33:30;7.50;98.60
4376;DHT22;2202;50.866;12.750;2024-03-23T05:35:57;7.50;98.50
4376;DHT22;2202;50.866;12.750;2024-03-23T05:38:24;7.60;98.30
4376;DHT22;2202;50.866;12.750;2024-03-23T05:40:53;7.60;98.30
4376;DHT22;2202;50.866;12.750;2024-03-23T05:43:20;7.60;98.10
4376;DHT22;2202;50.866;12.750;2024-03-23T05:45:47;7.60;98.40
4376;DHT22;2202;50.866;12.750;2024-03-23T05:48:19;7.60;98.30
4376;DHT22;2202;50.866;12.750;2024-03-23T05:50:46;7.70;98.00
4376;DHT22;2202;50.866;12.750;2024-03-23T05:53:14;7.70;98.00
4376;DHT22;2202;50.866;12.750;2024-03-23T05:55:40;7.70;97.80
4376;DHT22;2202;50.866;12.750;2024-03-23T05:58:06;7.70;97.80
4376;DHT22;2202;50.866;12.750;2024-03-23T06:00:32;7.60;98.00
4376;DHT22;2202;50.866;12.750;2024-03-23T06:02:59;7.60;98.10
4376;DHT22;2202;50.866;12.750;2024-03-23T06:05:25;7.60;98.40
4376;DHT22;2202;50.866;12.750;2024-03-23T06:07:53;7.60;98.40
4376;DHT22;2202;50.866;12.750;2024-03-23T06:10:19;7.60;98.50
4376;DHT22;2202;50.866;12.750;2024-03-23T06:12:46;7.60;98.50
4376;DHT22;2202;50.866;12.750;2024-03-23T06:15:12;7.60;98.50
4376;DHT22;2202;50.866;12.750;2024-03-23T06:17:38;7.60;98.60
4376;DHT22;2202;50.866;12.750;2024-03-23T06:20:05;7.70;98.50
4376;DHT22;2202;50.866;12.750;2024-03-23T06:22:32;7.70;98.50
4376;DHT22;2202;50.866;12.750;2024-03-23T06:25:00;7.70;98.40
4376;DHT22;2202;50.866;12.750;2024-03-23T06:27:27;7.80;98.20
4376;DHT22;2202;50.866;12.750;2024-03-23T06:29:53;7.80;98.20
4376;DHT22;2202;50.866;12.750;2024-03-23T06:32:20;7.90;98.20
4376;DHT22;2202;50.866;12.750;2024-03-23T06:34:46;8.00;98.00
4376;DHT22;2202;50.866;12.750;2024-03-23T06:37:13;7.90;97.80
4376;DHT22;2202;50.866;12.750;2024-03-23T06:39:39;7.80;98.20
4376;DHT22;2202;50.866;12.750;2024-03-23T06:42:07;7.70;98.60
4376;DHT22;2202;50.866;12.750;2024-03-23T06:44:33;7.70;99.00
4376;DHT22;2202;50.866;12.750;2024-03-23T06:47:00;7.80;99.00
4376;DHT22;2202;50.866;12.750;2024-03-23T06:49:26;7.90;99.10
4376;DHT22;2202;50.866;12.750;2024-03-23T06:51:53;7.90;99.10
4376;DHT22;2202;50.866;12.750;2024-03-23T06:54:19;7.90;99.20
4376;DHT22;2202;50.866;12.750;2024-03-23T06:56:46;8.00;99.30
4376;DHT22;2202;50.866;12.750;2024-03-23T06:59:13;8.10;99.20
4376;DHT22;2202;50.866;12.750;2024-03-23T07:01:40;8.20;99.30
4376;DHT22;2202;50.866;12.750;2024-03-23T07:04:06;8.30;99.20
4376;DHT22;2202;50.866;12.750;2024-03-23T07:06:33;8.30;98.80
4376;DHT22;2202;50.866;12.750;2024-03-23T07:08:58;8.30;98.60
4376;DHT22;2202;50.866;12.750;2024-03-23T07:11:25;8.40;98.70
4376;DHT22;2202;50.866;12.750;2024-03-23T07:13:52;8.50;98.60
4376;DHT22;2202;50.866;12.750;2024-03-23T07:16:21;8.60;98.30
4376;DHT22;2202;50.866;12.750;2024-03-23T07:18:47;8.70;98.10
4376;DHT22;2202;50.866;12.750;2024-03-23T07:21:15;8.90;97.90
4376;DHT22;2202;50.866;12.750;2024-03-23T07:23:42;9.00;97.60
4376;DHT22;2202;50.866;12.750;2024-03-23T07:26:10;9.00;97.20
4376;DHT22;2202;50.866;12.750;2024-03-23T07:28:36;9.10;97.10
4376;DHT22;2202;50.866;12.750;2024-03-23T07:31:04;9.10;97.00
4376;DHT22;2202;50.866;12.750;2024-03-23T07:33:32;9.10;96.80
4376;DHT22;2202;50.866;12.750;2024-03-23T07:36:00;9.10;96.80
4376;DHT22;2202;50.866;12.750;2024-03-23T07:38:27;9.20;97.00
4376;DHT22;2202;50.866;12.750;2024-03-23T07:41:03;9.10;96.30
4376;DHT22;2202;50.866;12.750;2024-03-23T07:43:29;9.10;96.80
4376;DHT22;2202;50.866;12.750;2024-03-23T07:45:55;9.30;97.20
4376;DHT22;2202;50.866;12.750;2024-03-23T07:48:21;9.50;97.20
4376;DHT22;2202;50.866;12.750;2024-03-23T07:50:58;9.60;95.90
4376;DHT22;2202;50.866;12.750;2024-03-23T07:53:24;9.70;95.80
4376;DHT22;2202;50.866;12.750;2024-03-23T07:55:54;9.80;95.20
4376;DHT22;2202;50.866;12.750;2024-03-23T07:58:21;9.90;95.10
4376;DHT22;2202;50.866;12.750;2024-03-23T08:00:47;10.00;94.80
4376;DHT22;2202;50.866;12.750;2024-03-23T08:03:13;10.10;94.90
4376;DHT22;2202;50.866;12.750;2024-03-23T08:05:39;10.20;94.90
4376;DHT22;2202;50.866;12.750;2024-03-23T08:08:07;10.40;94.00
4376;DHT22;2202;50.866;12.750;2024-03-23T08:10:33;10.40;93.20
4376;DHT22;2202;50.866;12.750;2024-03-23T08:13:00;10.60;94.10
4376;DHT22;2202;50.866;12.750;2024-03-23T08:15:26;10.70;92.50
4376;DHT22;2202;50.866;12.750;2024-03-23T08:17:52;10.60;92.50
4376;DHT22;2202;50.866;12.750;2024-03-23T08:20:18;10.60;92.60
4376;DHT22;2202;50.866;12.750;2024-03-23T08:22:45;10.40;92.70
4376;DHT22;2202;50.866;12.750;2024-03-23T08:25:12;10.40;92.60
4376;DHT22;2202;50.866;12.750;2024-03-23T08:27:39;10.30;92.90
4376;DHT22;2202;50.866;12.750;2024-03-23T08:30:06;10.20;92.80
4376;DHT22;2202;50.866;12.750;2024-03-23T08:32:33;10.20;92.70
4376;DHT22;2202;50.866;12.750;2024-03-23T08:34:58;10.20;92.70
4376;DHT22;2202;50.866;12.750;2024-03-23T08:37:25;10.20;92.50
4376;DHT22;2202;50.866;12.750;2024-03-23T08:39:51;10.10;92.60
4376;DHT22;2202;50.866;12.750;2024-03-23T08:42:19;10.00;92.90
4376;DHT22;2202;50.866;12.750;2024-03-23T08:44:47;9.90;93.40
4376;DHT22;2202;50.866;12.750;2024-03-23T08:47:15;9.70;94.50
4376;DHT22;2202;50.866;12.750;2024-03-23T08:49:41;8.60;96.20
4376;DHT22;2202;50.866;12.750;2024-03-23T08:52:08;7.80;98.60
4376;DHT22;2202;50.866;12.750;2024-03-23T08:54:34;7.40;99.20
4376;DHT22;2202;50.866;12.750;2024-03-23T08:57:00;6.80;98.70
4376;DHT22;2202;50.866;12.750;2024-03-23T08:59:27;6.40;99.10
4376;DHT22;2202;50.866;12.750;2024-03-23T09:01:54;6.00;99.20
4376;DHT22;2202;50.866;12.750;2024-03-23T09:04:20;5.70;99.80
4376;DHT22;2202;50.866;12.750;2024-03-23T09:06:48;5.00;99.20
4376;DHT22;2202;50.866;12.750;2024-03-23T09:09:13;4.90;99.90
4376;DHT22;2202;50.866;12.750;2024-03-23T09:11:40;4.70;99.90
4376;DHT22;2202;50.866;12.750;2024-03-23T09:14:06;4.40;99.90
4376;DHT22;2202;50.866;12.750;2024-03-23T09:16:34;4.20;99.90
4376;DHT22;2202;50.866;12.750;2024-03-23T09:19:00;3.90;99.90
4376;DHT22;2202;50.866;12.750;2024-03-23T09:21:27;3.70;99.90
4376;DHT22;2202;50.866;12.750;2024-03-23T09:23:53;3.60;99.90
4376;DHT22;2202;50.866;12.750;2024-03-23T09:26:20;3.50;99.90
4376;DHT22;2202;50.866;12.750;2024-03-23T09:28:48;3.50;99.90
4376;DHT22;2202;50.866;12.750;2024-03-23T09:31:15;3.50;99.90
4376;DHT22;2202;50.866;12.750;2024-03-23T09:33:42;3.50;99.90
4376;DHT22;2202;50.866;12.750;2024-03-23T09:36:09;3.40;99.90
4376;DHT22;2202;50.866;12.750;2024-03-23T09:38:35;3.40;99.90
4376;DHT22;2202;50.866;12.750;2024-03-23T09:41:07;3.20;99.90
4376;DHT22;2202;50.866;12.750;2024-03-23T09:43:33;3.10;99.90
4376;DHT22;2202;50.866;12.750;2024-03-23T09:46:01;3.10;99.90
4376;DHT22;2202;50.866;12.750;2024-03-23T09:48:27;3.10;99.90
4376;DHT22;2202;50.866;12.750;2024-03-23T09:50:56;3.00;99.90
4376;DHT22;2202;50.866;12.750;2024-03-23T09:53:22;2.90;99.90
4376;DHT22;2202;50.866;12.750;2024-03-23T09:55:49;3.00;99.90
4376;DHT22;2202;50.866;12.750;2024-03-23T09:58:15;3.00;99.90
4376;DHT22;2202;50.866;12.750;2024-03-23T10:00:43;3.10;99.90
4376;DHT22;2202;50.866;12.750;2024-03-23T10:03:09;3.10;99.90
4376;DHT22;2202;50.866;12.750;2024-03-23T10:05:37;3.00;99.90
4376;DHT22;2202;50.866;12.750;2024-03-23T10:08:17;3.00;99.90
4376;DHT22;2202;50.866;12.750;2024-03-23T10:10:45;3.00;99.90
4376;DHT22;2202;50.866;12.750;2024-03-23T10:13:23;2.90;99.90
4376;DHT22;2202;50.866;12.750;2024-03-23T10:15:55;2.90;99.90
4376;DHT22;2202;50.866;12.750;2024-03-23T10:18:22;2.90;99.90
4376;DHT22;2202;50.866;12.750;2024-03-23T10:20:51;2.90;99.90
4376;DHT22;2202;50.866;12.750;2024-03-23T10:23:19;2.90;99.90
4376;DHT22;2202;50.866;12.750;2024-03-23T10:25:46;3.00;99.90
4376;DHT22;2202;50.866;12.750;2024-03-23T10:28:12;2.90;99.90
4376;DHT22;2202;50.866;12.750;2024-03-23T10:30:39;2.90;99.90
4376;DHT22;2202;50.866;12.750;2024-03-23T10:33:09;2.80;99.90
4376;DHT22;2202;50.866;12.750;2024-03-23T10:35:36;2.80;99.90
4376;DHT22;2202;50.866;12.750;2024-03-23T10:38:04;2.80;99.90
4376;DHT22;2202;50.866;12.750;2024-03-23T10:40:34;2.80;99.90
4376;DHT22;2202;50.866;12.750;2024-03-23T10:43:00;2.80;99.90
4376;DHT22;2202;50.866;12.750;2024-03-23T10:45:29;2.90;99.90
4376;DHT22;2202;50.866;12.750;2024-03-23T10:47:55;2.90;99.90
4376;DHT22;2202;50.866;12.750;2024-03-23T10:50:22;2.90;99.90
4376;DHT22;2202;50.866;12.750;2024-03-23T10:52:49;3.00;99.90
4376;DHT22;2202;50.866;12.750;2024-03-23T10:55:17;3.20;99.90
4376;DHT22;2202;50.866;12.750;2024-03-23T10:57:49;3.20;99.90
4376;DHT22;2202;50.866;12.750;2024-03-23T11:00:18;3.10;99.90
4376;DHT22;2202;50.866;12.750;2024-03-23T11:02:43;3.10;99.90
4376;DHT22;2202;50.866;12.750;2024-03-23T11:05:29;3.10;99.90
4376;DHT22;2202;50.866;12.750;2024-03-23T11:07:55;3.10;99.90
4376;DHT22;2202;50.866;12.750;2024-03-23T11:10:26;3.10;99.90
4376;DHT22;2202;50.866;12.750;2024-03-23T11:12:53;3.10;99.90
4376;DHT22;2202;50.866;12.750;2024-03-23T11:15:20;3.10;99.90
4376;DHT22;2202;50.866;12.750;2024-03-23T11:18:04;3.10;99.90
4376;DHT22;2202;50.866;12.750;2024-03-23T11:20:32;3.10;99.90
4376;DHT22;2202;50.866;12.750;2024-03-23T11:22:59;3.20;99.90
4376;DHT22;2202;50.866;12.750;2024-03-23T11:25:26;3.30;99.90
4376;DHT22;2202;50.866;12.750;2024-03-23T11:27:55;3.40;99.90
4376;DHT22;2202;50.866;12.750;2024-03-23T11:30:23;3.40;99.90
4376;DHT22;2202;50.866;12.750;2024-03-23T11:32:51;3.30;99.90
4376;DHT22;2202;50.866;12.750;2024-03-23T11:35:28;3.40;99.90
4376;DHT22;2202;50.866;12.750;2024-03-23T11:38:07;3.30;99.90
4376;DHT22;2202;50.866;12.750;2024-03-23T11:40:35;3.30;99.90
4376;DHT22;2202;50.866;12.750;2024-03-23T11:43:04;3.50;99.90
4376;DHT22;2202;50.866;12.750;2024-03-23T11:45:35;3.60;99.90
4376;DHT22;2202;50.866;12.750;2024-03-23T11:48:08;3.60;99.90
4376;DHT22;2202;50.866;12.750;2024-03-23T11:50:37;3.60;99.90
4376;DHT22;2202;50.866;12.750;2024-03-23T11:53:16;3.60;99.90
4376;DHT22;2202;50.866;12.750;2024-03-23T11:55:47;3.80;99.90
4376;DHT22;2202;50.866;12.750;2024-03-23T11:58:15;3.90;99.90
4376;DHT22;2202;50.866;12.750;2024-03-23T12:00:43;3.80;99.90
4376;DHT22;2202;50.866;12.750;2024-03-23T12:03:14;3.90;99.90
4376;DHT22;2202;50.866;12.750;2024-03-23T12:05:48;3.90;99.60
4376;DHT22;2202;50.866;12.750;2024-03-23T12:08:21;3.90;99.50
4376;DHT22;2202;50.866;12.750;2024-03-23T12:10:50;3.80;99.70
4376;DHT22;2202;50.866;12.750;2024-03-23T12:13:19;3.90;99.70
4376;DHT22;2202;50.866;12.750;2024-03-23T12:15:46;3.90;99.80
4376;DHT22;2202;50.866;12.750;2024-03-23T12:18:15;4.00;99.80
4376;DHT22;2202;50.866;12.750;2024-03-23T12:20:42;4.10;99.90
4376;DHT22;2202;50.866;12.750;2024-03-23T12:23:12;3.90;98.70
4376;DHT22;2202;50.866;12.750;2024-03-23T12:25:45;3.90;99.20
4376;DHT22;2202;50.866;12.750;2024-03-23T12:28:16;4.00;98.90
4376;DHT22;2202;50.866;12.750;2024-03-23T12:30:49;4.00;99.20
4376;DHT22;2202;50.866;12.750;2024-03-23T12:33:18;3.90;98.60
4376;DHT22;2202;50.866;12.750;2024-03-23T12:35:47;3.90;98.40
4376;DHT22;2202;50.866;12.750;2024-03-23T12:38:13;3.80;98.30
4376;DHT22;2202;50.866;12.750;2024-03-23T12:40:39;3.90;98.70
4376;DHT22;2202;50.866;12.750;2024-03-23T12:43:06;4.00;99.20
4376;DHT22;2202;50.866;12.750;2024-03-23T12:45:33;4.10;99.00
4376;DHT22;2202;50.866;12.750;2024-03-23T12:48:00;4.30;98.80
4376;DHT22;2202;50.866;12.750;2024-03-23T12:50:27;4.60;98.70
4376;DHT22;2202;50.866;12.750;2024-03-23T12:52:53;4.90;98.00
4376;DHT22;2202;50.866;12.750;2024-03-23T12:55:20;5.30;98.10
4376;DHT22;2202;50.866;12.750;2024-03-23T12:57:46;5.60;96.00
4376;DHT22;2202;50.866;12.750;2024-03-23T13:00:13;5.80;95.30
4376;DHT22;2202;50.866;12.750;2024-03-23T13:02:41;5.70;93.40
4376;DHT22;2202;50.866;12.750;2024-03-23T13:05:09;5.50;92.90
4376;DHT22;2202;50.866;12.750;2024-03-23T13:07:35;5.50;94.30
4376;DHT22;2202;50.866;12.750;2024-03-23T13:10:03;5.60;92.10
4376;DHT22;2202;50.866;12.750;2024-03-23T13:12:30;5.70;92.70
4376;DHT22;2202;50.866;12.750;2024-03-23T13:14:58;5.70;91.80
4376;DHT22;2202;50.866;12.750;2024-03-23T13:17:24;5.70;91.40
4376;DHT22;2202;50.866;12.750;2024-03-23T13:19:52;5.70;91.30
4376;DHT22;2202;50.866;12.750;2024-03-23T13:22:19;5.70;90.50
4376;DHT22;2202;50.866;12.750;2024-03-23T13:24:46;5.70;90.80
4376;DHT22;2202;50.866;12.750;2024-03-23T13:27:12;5.70;90.80
4376;DHT22;2202;50.866;12.750;2024-03-23T13:29:38;5.60;90.30
4376;DHT22;2202;50.866;12.750;2024-03-23T13:32:05;5.60;90.40
4376;DHT22;2202;50.866;12.750;2024-03-23T13:34:32;5.70;90.00
4376;DHT22;2202;50.866;12.750;2024-03-23T13:36:59;6.00;90.00
4376;DHT22;2202;50.866;12.750;2024-03-23T13:39:27;6.30;87.20
4376;DHT22;2202;50.866;12.750;2024-03-23T13:41:53;6.50;86.20
4376;DHT22;2202;50.866;12.750;2024-03-23T13:44:21;6.90;86.20
4376;DHT22;2202;50.866;12.750;2024-03-23T13:46:47;7.20;80.00
4376;DHT22;2202;50.866;12.750;2024-03-23T13:49:25;7.40;78.80
4376;DHT22;2202;50.866;12.750;2024-03-23T13:51:52;7.90;77.20
4376;DHT22;2202;50.866;12.750;2024-03-23T13:54:19;7.70;69.20
4376;DHT22;2202;50.866;12.750;2024-03-23T13:56:48;7.40;69.60
4376;DHT22;2202;50.866;12.750;2024-03-23T13:59:14;7.30;71.00
4376;DHT22;2202;50.866;12.750;2024-03-23T14:01:40;7.20;70.40
4376;DHT22;2202;50.866;12.750;2024-03-23T14:04:07;7.20;70.20
4376;DHT22;2202;50.866;12.750;2024-03-23T14:06:33;7.50;73.00
4376;DHT22;2202;50.866;12.750;2024-03-23T14:09:00;7.60;72.00
4376;DHT22;2202;50.866;12.750;2024-03-23T14:11:25;7.80;72.80
4376;DHT22;2202;50.866;12.750;2024-03-23T14:13:55;8.10;73.40
4376;DHT22;2202;50.866;12.750;2024-03-23T14:16:21;8.00;67.20
4376;DHT22;2202;50.866;12.750;2024-03-23T14:18:47;7.80;68.40
4376;DHT22;2202;50.866;12.750;2024-03-23T14:21:13;7.70;68.80
4376;DHT22;2202;50.866;12.750;2024-03-23T14:23:40;7.60;69.40
4376;DHT22;2202;50.866;12.750;2024-03-23T14:26:06;7.50;71.60
4376;DHT22;2202;50.866;12.750;2024-03-23T14:28:33;7.30;69.80
4376;DHT22;2202;50.866;12.750;2024-03-23T14:31:01;7.10;71.80
4376;DHT22;2202;50.866;12.750;2024-03-23T14:33:28;7.00;72.80
4376;DHT22;2202;50.866;12.750;2024-03-23T14:35:55;7.10;72.00
4376;DHT22;2202;50.866;12.750;2024-03-23T14:38:22;7.20;70.80
4376;DHT22;2202;50.866;12.750;2024-03-23T14:40:48;7.50;72.20
4376;DHT22;2202;50.866;12.750;2024-03-23T14:43:17;7.70;70.40
4376;DHT22;2202;50.866;12.750;2024-03-23T14:46:07;7.70;69.80
4376;DHT22;2202;50.866;12.750;2024-03-23T14:48:35;7.70;72.40
4376;DHT22;2202;50.866;12.750;2024-03-23T14:51:01;7.60;69.40
4376;DHT22;2202;50.866;12.750;2024-03-23T14:53:30;7.40;71.20
4376;DHT22;2202;50.866;12.750;2024-03-23T14:55:56;7.20;69.40
4376;DHT22;2202;50.866;12.750;2024-03-23T14:58:23;7.20;71.00
4376;DHT22;2202;50.866;12.750;2024-03-23T15:00:50;7.10;71.00
4376;DHT22;2202;50.866;12.750;2024-03-23T15:03:18;7.10;70.40
4376;DHT22;2202;50.866;12.750;2024-03-23T15:05:52;7.00;71.40
4376;DHT22;2202;50.866;12.750;2024-03-23T15:08:19;6.90;71.60
4376;DHT22;2202;50.866;12.750;2024-03-23T15:10:45;7.10;72.40
4376;DHT22;2202;50.866;12.750;2024-03-23T15:13:11;7.20;71.40
4376;DHT22;2202;50.866;12.750;2024-03-23T15:15:38;7.60;73.00
4376;DHT22;2202;50.866;12.750;2024-03-23T15:18:06;7.80;63.80
4376;DHT22;2202;50.866;12.750;2024-03-23T15:20:33;8.10;66.60
4376;DHT22;2202;50.866;12.750;2024-03-23T15:23:02;8.40;65.00
4376;DHT22;2202;50.866;12.750;2024-03-23T15:25:27;7.90;57.60
4376;DHT22;2202;50.866;12.750;2024-03-23T15:27:54;7.60;59.90
4376;DHT22;2202;50.866;12.750;2024-03-23T15:30:20;7.60;60.80
4376;DHT22;2202;50.866;12.750;2024-03-23T15:32:47;7.50;59.00
4376;DHT22;2202;50.866;12.750;2024-03-23T15:35:13;7.60;60.10
4376;DHT22;2202;50.866;12.750;2024-03-23T15:37:41;7.70;58.50
4376;DHT22;2202;50.866;12.750;2024-03-23T15:40:07;7.70;58.70
4376;DHT22;2202;50.866;12.750;2024-03-23T15:42:35;7.60;58.20
4376;DHT22;2202;50.866;12.750;2024-03-23T15:45:01;7.40;58.70
4376;DHT22;2202;50.866;12.750;2024-03-23T15:47:29;7.40;58.90
4376;DHT22;2202;50.866;12.750;2024-03-23T15:49:54;7.20;59.90
4376;DHT22;2202;50.866;12.750;2024-03-23T15:52:21;7.10;60.20
4376;DHT22;2202;50.866;12.750;2024-03-23T15:54:48;7.10;62.60
4376;DHT22;2202;50.866;12.750;2024-03-23T15:57:15;7.00;69.40
4376;DHT22;2202;50.866;12.750;2024-03-23T15:59:41;6.40;78.00
4376;DHT22;2202;50.866;12.750;2024-03-23T16:02:08;5.90;82.40
4376;DHT22;2202;50.866;12.750;2024-03-23T16:04:34;5.50;85.20
4376;DHT22;2202;50.866;12.750;2024-03-23T16:07:01;5.30;88.80
4376;DHT22;2202;50.866;12.750;2024-03-23T16:09:27;5.00;90.30
4376;DHT22;2202;50.866;12.750;2024-03-23T16:11:56;4.70;91.60
4376;DHT22;2202;50.866;12.750;2024-03-23T16:14:21;4.40;93.00
4376;DHT22;2202;50.866;12.750;2024-03-23T16:16:49;4.20;94.00
4376;DHT22;2202;50.866;12.750;2024-03-23T16:19:15;4.20;94.60
4376;DHT22;2202;50.866;12.750;2024-03-23T16:21:42;4.10;95.10
4376;DHT22;2202;50.866;12.750;2024-03-23T16:24:08;4.00;95.60
4376;DHT22;2202;50.866;12.750;2024-03-23T16:26:34;4.10;96.10
4376;DHT22;2202;50.866;12.750;2024-03-23T16:29:02;4.10;96.00
4376;DHT22;2202;50.866;12.750;2024-03-23T16:31:28;4.30;96.30
4376;DHT22;2202;50.866;12.750;2024-03-23T16:33:55;4.60;95.60
4376;DHT22;2202;50.866;12.750;2024-03-23T16:36:21;4.60;94.70
4376;DHT22;2202;50.866;12.750;2024-03-23T16:38:47;4.70;94.50
4376;DHT22;2202;50.866;12.750;2024-03-23T16:41:14;4.80;93.70
4376;DHT22;2202;50.866;12.750;2024-03-23T16:43:42;4.80;93.30
4376;DHT22;2202;50.866;12.750;2024-03-23T16:46:10;4.90;92.80
4376;DHT22;2202;50.866;12.750;2024-03-23T16:48:37;4.90;91.90
4376;DHT22;2202;50.866;12.750;2024-03-23T16:51:04;5.00;91.60
4376;DHT22;2202;50.866;12.750;2024-03-23T16:53:31;5.00;91.20
4376;DHT22;2202;50.866;12.750;2024-03-23T16:55:58;4.90;90.40